createdAt,value
2016-08-21T00:00:20.775Z,1009.35
2016-08-21T00:01:33.759Z,1009.33
2016-08-21T00:02:46.948Z,1009.38
2016-08-21T00:03:59.925Z,1009.41
2016-08-21T00:05:12.907Z,1009.4
2016-08-21T00:06:25.887Z,1009.43
2016-08-21T00:07:38.868Z,1009.49
2016-08-21T00:08:51.854Z,1009.41
2016-08-21T00:10:04.842Z,1009.41
2016-08-21T00:11:17.825Z,1009.38
2016-08-21T00:12:30.817Z,1009.42
2016-08-21T00:13:43.799Z,1009.42
2016-08-21T00:14:56.785Z,1009.43
2016-08-21T00:16:09.963Z,1009.49
2016-08-21T00:17:22.937Z,1009.5
2016-08-21T00:18:35.921Z,1009.52
2016-08-21T00:19:48.901Z,1009.49
2016-08-21T00:21:01.894Z,1009.51
2016-08-21T00:22:14.880Z,1009.54
2016-08-21T00:23:27.862Z,1009.47
2016-08-21T00:24:40.861Z,1009.52
2016-08-21T00:25:53.855Z,1009.53
2016-08-21T00:27:06.839Z,1009.53
2016-08-21T00:28:19.812Z,1009.57
2016-08-21T00:29:32.793Z,1009.59
2016-08-21T00:30:45.975Z,1009.59
2016-08-21T00:31:58.957Z,1009.59
2016-08-21T00:33:12.208Z,1009.62
2016-08-21T00:34:25.397Z,1009.58
2016-08-21T00:35:38.370Z,1009.63
2016-08-21T00:36:51.352Z,1009.6
2016-08-21T00:38:04.351Z,1009.58
2016-08-21T00:39:17.333Z,1009.62
2016-08-21T00:40:30.314Z,1009.59
2016-08-21T00:41:43.296Z,1009.59
2016-08-21T00:42:56.474Z,1009.62
2016-08-21T00:44:09.464Z,1009.6
2016-08-21T00:45:22.448Z,1009.6
2016-08-21T00:46:35.434Z,1009.57
2016-08-21T00:47:48.433Z,1009.62
2016-08-21T00:49:01.418Z,1009.63
2016-08-21T00:50:14.423Z,1009.61
2016-08-21T00:51:27.607Z,1009.64
2016-08-21T00:52:40.590Z,1009.59
2016-08-21T00:53:53.796Z,1009.61
2016-08-21T00:55:06.782Z,1009.65
2016-08-21T00:56:19.765Z,1009.62
2016-08-21T00:57:32.756Z,1009.59
2016-08-21T00:58:45.747Z,1009.62
2016-08-21T00:59:58.727Z,1009.61
2016-08-21T01:01:11.703Z,1009.64
2016-08-21T01:02:24.680Z,1009.6
2016-08-21T01:03:37.655Z,1009.61
2016-08-21T01:04:50.627Z,1009.57
2016-08-21T01:06:03.613Z,1009.61
2016-08-21T01:07:16.593Z,1009.65
2016-08-21T01:08:29.571Z,1009.62
2016-08-21T01:09:42.551Z,1009.6
2016-08-21T01:10:55.735Z,1009.57
2016-08-21T01:12:08.719Z,1009.6
2016-08-21T01:13:21.710Z,1009.6
2016-08-21T01:14:34.691Z,1009.63
2016-08-21T01:15:47.672Z,1009.6
2016-08-21T01:17:00.673Z,1009.61
2016-08-21T01:18:13.659Z,1009.62
2016-08-21T01:19:26.636Z,1009.63
2016-08-21T01:20:39.618Z,1009.6
2016-08-21T01:21:52.603Z,1009.6
2016-08-21T01:23:05.598Z,1009.56
2016-08-21T01:24:18.589Z,1009.59
2016-08-21T01:25:31.777Z,1009.6
2016-08-21T01:26:44.956Z,1009.59
2016-08-21T01:27:57.936Z,1009.58
2016-08-21T01:29:10.916Z,1009.59
2016-08-21T01:30:24.108Z,1009.61
2016-08-21T01:31:37.092Z,1009.61
2016-08-21T01:32:50.071Z,1009.61
2016-08-21T01:34:03.103Z,1009.62
2016-08-21T01:35:16.091Z,1009.58
2016-08-21T01:36:29.074Z,1009.6
2016-08-21T01:37:42.046Z,1009.57
2016-08-21T01:38:55.029Z,1009.59
2016-08-21T01:40:08.014Z,1009.59
2016-08-21T01:41:20.997Z,1009.62
2016-08-21T01:42:33.976Z,1009.62
2016-08-21T01:43:46.960Z,1009.64
2016-08-21T01:45:00.147Z,1009.63
2016-08-21T01:46:13.124Z,1009.64
2016-08-21T01:47:26.318Z,1009.64
2016-08-21T01:48:39.500Z,1009.69
2016-08-21T01:49:52.486Z,1009.69
2016-08-21T01:51:05.905Z,1009.7
2016-08-21T01:52:18.881Z,1009.74
2016-08-21T01:53:31.869Z,1009.71
2016-08-21T01:54:45.044Z,1009.69
2016-08-21T01:55:58.027Z,1009.71
2016-08-21T01:57:11.003Z,1009.69
2016-08-21T01:58:23.985Z,1009.68
2016-08-21T01:59:36.973Z,1009.66
2016-08-21T02:00:49.948Z,1009.66
2016-08-21T02:02:02.926Z,1009.64
2016-08-21T02:03:15.918Z,1009.65
2016-08-21T02:04:28.897Z,1009.71
2016-08-21T02:05:41.877Z,1009.72
2016-08-21T02:06:54.856Z,1009.69
2016-08-21T02:08:08.052Z,1009.62
2016-08-21T02:09:21.021Z,1009.68
2016-08-21T02:10:33.996Z,1009.64
2016-08-21T02:11:47.177Z,1009.65
2016-08-21T02:13:00.351Z,1009.64
2016-08-21T02:14:13.330Z,1009.65
2016-08-21T02:15:26.298Z,1009.69
2016-08-21T02:16:39.277Z,1009.67
2016-08-21T02:17:52.459Z,1009.66
2016-08-21T02:19:05.460Z,1009.64
2016-08-21T02:20:18.428Z,1009.68
2016-08-21T02:21:31.413Z,1009.71
2016-08-21T02:22:44.401Z,1009.66
2016-08-21T02:23:57.575Z,1009.67
2016-08-21T02:25:10.555Z,1009.65
2016-08-21T02:26:23.743Z,1009.59
2016-08-21T02:27:36.926Z,1009.63
2016-08-21T02:28:50.119Z,1009.67
2016-08-21T02:30:03.107Z,1009.66
2016-08-21T02:31:16.092Z,1009.64
2016-08-21T02:32:29.279Z,1009.67
2016-08-21T02:33:42.270Z,1009.63
2016-08-21T02:34:55.305Z,1009.64
2016-08-21T02:36:08.293Z,1009.66
2016-08-21T02:37:21.268Z,1009.61
2016-08-21T02:38:34.238Z,1009.66
2016-08-21T02:39:47.218Z,1009.62
2016-08-21T02:41:00.176Z,1009.65
2016-08-21T02:42:13.173Z,1009.62
2016-08-21T02:43:26.145Z,1009.65
2016-08-21T02:44:39.126Z,1009.65
2016-08-21T02:45:52.102Z,1009.65
2016-08-21T02:47:05.084Z,1009.64
2016-08-21T02:48:18.066Z,1009.61
2016-08-21T02:49:31.056Z,1009.6
2016-08-21T02:50:44.033Z,1009.66
2016-08-21T02:51:57.015Z,1009.66
2016-08-21T02:53:09.979Z,1009.65
2016-08-21T02:54:22.969Z,1009.7
2016-08-21T02:55:35.943Z,1009.68
2016-08-21T02:56:48.920Z,1009.67
2016-08-21T02:58:01.900Z,1009.73
2016-08-21T02:59:14.906Z,1009.68
2016-08-21T03:00:27.885Z,1009.78
2016-08-21T03:01:40.861Z,1009.77
2016-08-21T03:02:53.856Z,1009.78
2016-08-21T03:04:06.833Z,1009.79
2016-08-21T03:05:19.810Z,1009.73
2016-08-21T03:06:32.790Z,1009.77
2016-08-21T03:07:45.760Z,1009.73
2016-08-21T03:08:58.956Z,1009.75
2016-08-21T03:10:12.143Z,1009.79
2016-08-21T03:11:25.126Z,1009.76
2016-08-21T03:12:38.118Z,1009.78
2016-08-21T03:13:51.105Z,1009.77
2016-08-21T03:15:04.085Z,1009.77
2016-08-21T03:16:17.260Z,1009.78
2016-08-21T03:17:30.242Z,1009.76
2016-08-21T03:18:43.223Z,1009.73
2016-08-21T03:19:56.207Z,1009.79
2016-08-21T03:21:09.201Z,1009.78
2016-08-21T03:22:22.180Z,1009.78
2016-08-21T03:23:35.190Z,1009.79
2016-08-21T03:24:48.166Z,1009.78
2016-08-21T03:26:01.141Z,1009.78
2016-08-21T03:27:14.123Z,1009.75
2016-08-21T03:28:27.101Z,1009.75
2016-08-21T03:29:40.080Z,1009.77
2016-08-21T03:30:53.059Z,1009.71
2016-08-21T03:32:06.058Z,1009.74
2016-08-21T03:33:19.258Z,1009.75
2016-08-21T03:34:32.247Z,1009.73
2016-08-21T03:35:45.277Z,1009.75
2016-08-21T03:36:58.241Z,1009.78
2016-08-21T03:38:11.426Z,1009.76
2016-08-21T03:39:24.601Z,1009.76
2016-08-21T03:40:37.578Z,1009.78
2016-08-21T03:41:50.558Z,1009.79
2016-08-21T03:43:03.547Z,1009.79
2016-08-21T03:44:16.549Z,1009.79
2016-08-21T03:45:29.521Z,1009.82
2016-08-21T03:46:42.503Z,1009.82
2016-08-21T03:47:55.484Z,1009.79
2016-08-21T03:49:08.485Z,1009.84
2016-08-21T03:50:21.467Z,1009.79
2016-08-21T03:51:34.454Z,1009.83
2016-08-21T03:52:47.638Z,1009.83
2016-08-21T03:54:00.814Z,1009.84
2016-08-21T03:55:13.999Z,1009.84
2016-08-21T03:56:26.983Z,1009.87
2016-08-21T03:57:39.965Z,1009.83
2016-08-21T03:58:52.933Z,1009.87
2016-08-21T04:00:05.916Z,1009.89
2016-08-21T04:01:18.902Z,1009.88
2016-08-21T04:02:32.098Z,1009.87
2016-08-21T04:03:45.074Z,1009.87
2016-08-21T04:04:58.257Z,1009.88
2016-08-21T04:06:11.242Z,1009.88
2016-08-21T04:07:24.247Z,1009.93
2016-08-21T04:08:37.212Z,1009.86
2016-08-21T04:09:50.594Z,1009.87
2016-08-21T04:11:03.573Z,1009.8
2016-08-21T04:12:16.547Z,1009.78
2016-08-21T04:13:29.522Z,1009.78
2016-08-21T04:14:42.500Z,1009.84
2016-08-21T04:15:55.477Z,1009.83
2016-08-21T04:17:08.660Z,1009.83
2016-08-21T04:18:21.638Z,1009.77
2016-08-21T04:19:34.610Z,1009.83
2016-08-21T04:20:47.582Z,1009.8
2016-08-21T04:22:00.559Z,1009.78
2016-08-21T04:23:13.565Z,1009.78
2016-08-21T04:24:26.548Z,1009.78
2016-08-21T04:25:39.516Z,1009.8
2016-08-21T04:26:52.496Z,1009.72
2016-08-21T04:28:05.676Z,1009.76
2016-08-21T04:29:18.643Z,1009.71
2016-08-21T04:30:31.625Z,1009.71
2016-08-21T04:31:44.601Z,1009.78
2016-08-21T04:32:57.605Z,1009.71
2016-08-21T04:34:10.584Z,1009.77
2016-08-21T04:35:23.572Z,1009.81
2016-08-21T04:36:36.605Z,1009.74
2016-08-21T04:37:49.596Z,1009.75
2016-08-21T04:39:02.583Z,1009.8
2016-08-21T04:40:15.562Z,1009.82
2016-08-21T04:41:28.539Z,1009.78
2016-08-21T04:42:41.519Z,1009.8
2016-08-21T04:43:54.526Z,1009.84
2016-08-21T04:45:07.701Z,1009.81
2016-08-21T04:46:20.678Z,1009.83
2016-08-21T04:47:33.859Z,1009.82
2016-08-21T04:48:46.844Z,1009.84
2016-08-21T04:49:59.839Z,1009.83
2016-08-21T04:51:12.825Z,1009.84
2016-08-21T04:52:25.818Z,1009.77
2016-08-21T04:53:38.998Z,1009.79
2016-08-21T04:54:51.979Z,1009.85
2016-08-21T04:56:04.960Z,1009.8
2016-08-21T04:57:17.936Z,1009.82
2016-08-21T04:58:31.117Z,1009.88
2016-08-21T04:59:44.095Z,1009.9
2016-08-21T05:00:57.083Z,1009.89
2016-08-21T05:02:10.058Z,1009.87
2016-08-21T05:03:23.040Z,1009.85
2016-08-21T05:04:36.022Z,1009.81
2016-08-21T05:05:49.006Z,1009.86
2016-08-21T05:07:01.990Z,1009.85
2016-08-21T05:08:15.183Z,1009.92
2016-08-21T05:09:28.169Z,1009.89
2016-08-21T05:10:41.162Z,1009.85
2016-08-21T05:11:54.139Z,1009.87
2016-08-21T05:13:07.124Z,1009.84
2016-08-21T05:14:20.098Z,1009.82
2016-08-21T05:15:33.280Z,1009.82
2016-08-21T05:16:46.247Z,1009.86
2016-08-21T05:17:59.229Z,1009.91
2016-08-21T05:19:12.215Z,1009.96
2016-08-21T05:20:25.205Z,1009.91
2016-08-21T05:21:38.388Z,1009.9
2016-08-21T05:22:51.377Z,1009.89
2016-08-21T05:24:04.361Z,1009.94
2016-08-21T05:25:17.529Z,1009.97
2016-08-21T05:26:30.508Z,1009.95
2016-08-21T05:27:43.485Z,1009.97
2016-08-21T05:28:56.466Z,1009.98
2016-08-21T05:30:09.445Z,1010.07
2016-08-21T05:31:22.427Z,1010.07
2016-08-21T05:32:35.411Z,1010.12
2016-08-21T05:33:48.388Z,1010.18
2016-08-21T05:35:01.373Z,1010.16
2016-08-21T05:36:14.350Z,1010.13
2016-08-21T05:37:27.387Z,1010.13
2016-08-21T05:38:40.581Z,1010.13
2016-08-21T05:39:53.595Z,1010.14
2016-08-21T05:41:06.565Z,1010.17
2016-08-21T05:42:19.550Z,1010.21
2016-08-21T05:43:32.726Z,1010.2
2016-08-21T05:44:45.705Z,1010.22
2016-08-21T05:45:58.686Z,1010.16
2016-08-21T05:47:11.673Z,1010.15
2016-08-21T05:48:24.648Z,1010.09
2016-08-21T05:49:37.644Z,1010.12
2016-08-21T05:50:50.631Z,1010.14
2016-08-21T05:52:03.615Z,1010.18
2016-08-21T05:53:16.612Z,1010.2
2016-08-21T05:54:29.604Z,1010.2
2016-08-21T05:55:42.583Z,1010.13
2016-08-21T05:56:55.576Z,1010.15
2016-08-21T05:58:08.559Z,1010.23
2016-08-21T05:59:21.537Z,1010.25
2016-08-21T06:00:34.518Z,1010.22
2016-08-21T06:01:47.704Z,1010.27
2016-08-21T06:03:00.929Z,1010.26
2016-08-21T06:04:13.936Z,1010.27
2016-08-21T06:05:26.917Z,1010.26
2016-08-21T06:06:39.897Z,1010.25
2016-08-21T06:07:52.880Z,1010.22
2016-08-21T06:09:05.861Z,1010.24
2016-08-21T06:10:18.841Z,1010.3
2016-08-21T06:11:31.812Z,1010.26
2016-08-21T06:12:44.798Z,1010.3
2016-08-21T06:13:57.986Z,1010.4
2016-08-21T06:15:10.968Z,1010.42
2016-08-21T06:16:24.157Z,1010.42
2016-08-21T06:17:37.134Z,1010.44
2016-08-21T06:18:50.123Z,1010.48
2016-08-21T06:20:03.109Z,1010.58
2016-08-21T06:21:16.092Z,1010.54
2016-08-21T06:22:29.071Z,1010.48
2016-08-21T06:23:42.259Z,1010.47
2016-08-21T06:24:55.250Z,1010.45
2016-08-21T06:26:08.230Z,1010.41
2016-08-21T06:27:21.221Z,1010.42
2016-08-21T06:28:34.211Z,1010.46
2016-08-21T06:29:47.396Z,1010.43
2016-08-21T06:31:00.390Z,1010.47
2016-08-21T06:32:13.575Z,1010.46
2016-08-21T06:33:26.550Z,1010.49
2016-08-21T06:34:39.524Z,1010.54
2016-08-21T06:35:52.509Z,1010.52
2016-08-21T06:37:05.488Z,1010.63
2016-08-21T06:38:18.513Z,1010.61
2016-08-21T06:39:31.494Z,1010.64
2016-08-21T06:40:44.478Z,1010.66
2016-08-21T06:41:57.683Z,1010.7
2016-08-21T06:43:10.871Z,1010.76
2016-08-21T06:44:23.881Z,1010.78
2016-08-21T06:45:36.863Z,1011.16
2016-08-21T06:46:49.853Z,1011.03
2016-08-21T06:48:02.834Z,1011.02
2016-08-21T06:49:16.233Z,1010.86
2016-08-21T06:50:29.412Z,1010.83
2016-08-21T06:51:42.427Z,1010.82
2016-08-21T06:52:55.409Z,1010.95
2016-08-21T06:54:08.396Z,1010.84
2016-08-21T06:55:21.385Z,1010.79
2016-08-21T06:56:34.378Z,1010.86
2016-08-21T06:57:47.367Z,1010.84
2016-08-21T06:59:00.359Z,1010.89
2016-08-21T07:00:13.350Z,1010.97
2016-08-21T07:01:26.532Z,1011.04
2016-08-21T07:02:39.513Z,1011.05
2016-08-21T07:03:52.513Z,1011.03
2016-08-21T07:05:05.508Z,1011.19
2016-08-21T07:06:18.502Z,1011.11
2016-08-21T07:07:31.489Z,1011.1
2016-08-21T07:08:44.477Z,1011.15
2016-08-21T07:09:57.465Z,1011.25
2016-08-21T07:11:10.448Z,1011.33
2016-08-21T07:12:23.429Z,1011.22
2016-08-21T07:13:36.421Z,1011.21
2016-08-21T07:14:49.410Z,1011.23
2016-08-21T07:16:02.415Z,1011.03
2016-08-21T07:17:15.411Z,1010.99
2016-08-21T07:18:28.405Z,1011.06
2016-08-21T07:19:41.411Z,1011.04
2016-08-21T07:20:54.604Z,1011.2
2016-08-21T07:22:07.588Z,1011.71
2016-08-21T07:23:20.576Z,1012.94
2016-08-21T07:24:33.567Z,1013.62
2016-08-21T07:25:46.565Z,1014.56
2016-08-21T07:26:59.569Z,1014.21
2016-08-21T07:28:12.558Z,1013.06
2016-08-21T07:29:25.744Z,1011.3
2016-08-21T07:30:38.750Z,1012.5
2016-08-21T07:31:51.753Z,1011.71
2016-08-21T07:33:04.745Z,1011.68
2016-08-21T07:34:18.146Z,1011.12
2016-08-21T07:35:31.137Z,1012.21
2016-08-21T07:36:44.139Z,1012.14
2016-08-21T07:37:57.337Z,1013.09
2016-08-21T07:39:10.372Z,1014.62
2016-08-21T07:40:23.354Z,1012.72
2016-08-21T07:41:36.556Z,1011.51
2016-08-21T07:42:49.556Z,1015.1
2016-08-21T07:44:02.550Z,1011.81
2016-08-21T07:45:15.543Z,1010.9
2016-08-21T07:46:28.542Z,1011.18
2016-08-21T07:47:41.530Z,1010.89
2016-08-21T07:48:54.724Z,1011.02
2016-08-21T07:50:07.717Z,1010.76
2016-08-21T07:51:20.712Z,1010.9
2016-08-21T07:52:33.715Z,1017.95
2016-08-21T07:53:46.699Z,1010.89
2016-08-21T07:54:59.691Z,1011.35
2016-08-21T07:56:12.682Z,1011.26
2016-08-21T07:57:25.677Z,1010.84
2016-08-21T07:58:38.682Z,1010.93
2016-08-21T07:59:51.672Z,1010.74
2016-08-21T08:01:04.664Z,1010.71
2016-08-21T08:02:17.658Z,1010.68
2016-08-21T08:03:30.851Z,1010.75
2016-08-21T08:04:43.857Z,1010.92
2016-08-21T08:05:56.829Z,1010.96
2016-08-21T08:07:09.816Z,1010.95
2016-08-21T08:08:22.810Z,1011.07
2016-08-21T08:09:36.015Z,1010.91
2016-08-21T08:10:49.003Z,1010.89
2016-08-21T08:12:02.196Z,1010.99
2016-08-21T08:13:15.183Z,1011.14
2016-08-21T08:14:28.173Z,1011.17
2016-08-21T08:15:41.158Z,1011.15
2016-08-21T08:16:54.151Z,1011.26
2016-08-21T08:18:07.137Z,1010.98
2016-08-21T08:19:20.131Z,1010.94
2016-08-21T08:20:33.118Z,1010.92
2016-08-21T08:21:46.311Z,1010.93
2016-08-21T08:22:59.492Z,1010.91
2016-08-21T08:24:12.688Z,1011
2016-08-21T08:25:25.680Z,1011.02
2016-08-21T08:26:38.667Z,1011.03
2016-08-21T08:27:51.869Z,1011.16
2016-08-21T08:29:04.867Z,1011.16
2016-08-21T08:30:17.853Z,1011.18
2016-08-21T08:31:30.842Z,1011.13
2016-08-21T08:32:44.029Z,1011.28
2016-08-21T08:33:57.028Z,1011.36
2016-08-21T08:35:10.015Z,1011.46
2016-08-21T08:36:23.001Z,1011.56
2016-08-21T08:37:35.990Z,1011.51
2016-08-21T08:38:48.974Z,1012.26
2016-08-21T08:40:02.010Z,1011.75
2016-08-21T08:41:15.221Z,1012.2
2016-08-21T08:42:28.408Z,1013.64
2016-08-21T08:43:41.409Z,1017.84
2016-08-21T08:44:54.392Z,1026.71
2016-08-21T08:46:07.377Z,1013.8
2016-08-21T08:47:20.368Z,1019.76
2016-08-21T08:48:33.354Z,1011.98
2016-08-21T08:49:46.346Z,1016.57
2016-08-21T08:50:59.340Z,1012.23
2016-08-21T08:52:12.342Z,1025.3
2016-08-21T08:53:25.538Z,1012.35
2016-08-21T08:54:38.529Z,1012.63
2016-08-21T08:55:51.529Z,1017.53
2016-08-21T08:57:04.518Z,1012.18
2016-08-21T08:58:17.496Z,1011.91
2016-08-21T08:59:30.484Z,1013.86
2016-08-21T09:00:43.477Z,1015.5
2016-08-21T09:01:56.479Z,1013.23
2016-08-21T09:03:09.464Z,1011.56
2016-08-21T09:04:22.456Z,1011.26
2016-08-21T09:05:35.452Z,1011.28
2016-08-21T09:06:48.440Z,1011.28
2016-08-21T09:08:01.623Z,1011.18
2016-08-21T09:09:14.803Z,1011.19
2016-08-21T09:10:27.798Z,1011.21
2016-08-21T09:11:40.989Z,1011.09
2016-08-21T09:12:54.194Z,1011.19
2016-08-21T09:14:07.183Z,1011.14
2016-08-21T09:15:20.184Z,1011.24
2016-08-21T09:16:33.183Z,1011.24
2016-08-21T09:17:46.168Z,1011.19
2016-08-21T09:18:59.159Z,1011.14
2016-08-21T09:20:12.162Z,1011.15
2016-08-21T09:21:25.155Z,1011.2
2016-08-21T09:22:38.360Z,1011.3
2016-08-21T09:23:51.347Z,1011.25
2016-08-21T09:25:04.332Z,1011.25
2016-08-21T09:26:17.324Z,1011.32
2016-08-21T09:27:30.511Z,1011.34
2016-08-21T09:28:43.500Z,1011.41
2016-08-21T09:29:56.483Z,1011.55
2016-08-21T09:31:09.471Z,1011.84
2016-08-21T09:32:22.461Z,1011.76
2016-08-21T09:33:35.449Z,1011.84
2016-08-21T09:34:48.631Z,1011.79
2016-08-21T09:36:01.823Z,1011.68
2016-08-21T09:37:15.030Z,1011.67
2016-08-21T09:38:28.022Z,1011.64
2016-08-21T09:39:41.022Z,1011.6
2016-08-21T09:40:54.075Z,1011.71
2016-08-21T09:42:07.255Z,1011.72
2016-08-21T09:43:20.237Z,1011.8
2016-08-21T09:44:33.219Z,1011.78
2016-08-21T09:45:46.199Z,1011.84
2016-08-21T09:46:59.200Z,1011.95
2016-08-21T09:48:12.183Z,1011.88
2016-08-21T09:49:25.379Z,1011.92
2016-08-21T09:50:38.365Z,1011.87
2016-08-21T09:51:51.359Z,1011.89
2016-08-21T09:53:04.337Z,1011.84
2016-08-21T09:54:17.858Z,1011.87
2016-08-21T09:55:30.848Z,1011.87
2016-08-21T09:56:43.834Z,1011.81
2016-08-21T09:57:56.817Z,1011.82
2016-08-21T09:59:09.797Z,1011.75
2016-08-21T10:00:22.783Z,1011.84
2016-08-21T10:01:35.777Z,1011.84
2016-08-21T10:02:48.973Z,1011.85
2016-08-21T10:04:01.972Z,1011.8
2016-08-21T10:05:14.979Z,1011.76
2016-08-21T10:06:27.968Z,1011.74
2016-08-21T10:07:40.952Z,1011.72
2016-08-21T10:08:53.946Z,1011.74
2016-08-21T10:10:06.926Z,1011.82
2016-08-21T10:11:19.907Z,1011.74
2016-08-21T10:12:32.897Z,1011.76
2016-08-21T10:13:45.898Z,1011.75
2016-08-21T10:14:58.887Z,1012.07
2016-08-21T10:16:11.871Z,1012.54
2016-08-21T10:17:24.867Z,1013.76
2016-08-21T10:18:38.049Z,1014.53
2016-08-21T10:19:51.043Z,1012.58
2016-08-21T10:21:04.031Z,1013.44
2016-08-21T10:22:17.225Z,1012.71
2016-08-21T10:23:30.211Z,1012.55
2016-08-21T10:24:43.406Z,1013.15
2016-08-21T10:25:56.404Z,1013.09
2016-08-21T10:27:09.591Z,1012.23
2016-08-21T10:28:22.576Z,1012.16
2016-08-21T10:29:35.783Z,1012.08
2016-08-21T10:30:48.966Z,1012.15
2016-08-21T10:32:01.956Z,1011.98
2016-08-21T10:33:14.952Z,1012.03
2016-08-21T10:34:27.946Z,1012.15
2016-08-21T10:35:40.938Z,1013.14
2016-08-21T10:36:53.931Z,1012.44
2016-08-21T10:38:06.928Z,1012.5
2016-08-21T10:39:19.925Z,1012.04
2016-08-21T10:40:32.931Z,1012.24
2016-08-21T10:41:45.973Z,1012.14
2016-08-21T10:42:58.977Z,1012.1
2016-08-21T10:44:11.969Z,1012.12
2016-08-21T10:45:24.962Z,1012
2016-08-21T10:46:38.154Z,1012.03
2016-08-21T10:47:51.348Z,1012.16
2016-08-21T10:49:04.333Z,1012.08
2016-08-21T10:50:17.326Z,1011.99
2016-08-21T10:51:30.315Z,1012.02
2016-08-21T10:52:43.299Z,1012.09
2016-08-21T10:53:56.285Z,1012.26
2016-08-21T10:55:09.278Z,1012.22
2016-08-21T10:56:22.265Z,1012.6
2016-08-21T10:57:35.254Z,1012.32
2016-08-21T10:58:48.243Z,1013.03
2016-08-21T11:00:01.231Z,1012.67
2016-08-21T11:01:14.226Z,1012.55
2016-08-21T11:02:27.213Z,1012.52
2016-08-21T11:03:40.224Z,1012.33
2016-08-21T11:04:53.210Z,1012.38
2016-08-21T11:06:06.195Z,1012.45
2016-08-21T11:07:19.181Z,1012.35
2016-08-21T11:08:32.169Z,1012.25
2016-08-21T11:09:45.156Z,1012.09
2016-08-21T11:10:58.350Z,1012.02
2016-08-21T11:12:11.342Z,1012.04
2016-08-21T11:13:24.531Z,1012.08
2016-08-21T11:14:37.526Z,1012.17
2016-08-21T11:15:50.726Z,1012.11
2016-08-21T11:17:03.719Z,1012.3
2016-08-21T11:18:16.915Z,1012.25
2016-08-21T11:19:29.913Z,1012.15
2016-08-21T11:20:42.897Z,1012.06
2016-08-21T11:21:55.896Z,1012.16
2016-08-21T11:23:09.086Z,1012.23
2016-08-21T11:24:22.071Z,1012.3
2016-08-21T11:25:35.459Z,1012.25
2016-08-21T11:26:48.441Z,1012.13
2016-08-21T11:28:01.421Z,1012.12
2016-08-21T11:29:14.607Z,1012.12
2016-08-21T11:30:27.594Z,1012.09
2016-08-21T11:31:40.577Z,1012.16
2016-08-21T11:32:53.560Z,1012.15
2016-08-21T11:34:06.539Z,1012.17
2016-08-21T11:35:19.519Z,1012.19
2016-08-21T11:36:32.701Z,1012.12
2016-08-21T11:37:45.695Z,1012.22
2016-08-21T11:38:58.678Z,1012.21
2016-08-21T11:40:11.863Z,1012.23
2016-08-21T11:41:24.849Z,1012.27
2016-08-21T11:42:37.876Z,1012.29
2016-08-21T11:43:50.883Z,1012.31
2016-08-21T11:45:03.867Z,1012.3
2016-08-21T11:46:16.852Z,1012.47
2016-08-21T11:47:29.843Z,1012.34
2016-08-21T11:48:42.827Z,1012.42
2016-08-21T11:49:56.020Z,1012.39
2016-08-21T11:51:09.026Z,1012.48
2016-08-21T11:52:22.017Z,1012.5
2016-08-21T11:53:35.005Z,1012.58
2016-08-21T11:54:47.996Z,1012.62
2016-08-21T11:56:00.980Z,1012.63
2016-08-21T11:57:13.964Z,1012.54
2016-08-21T11:58:26.948Z,1012.57
2016-08-21T11:59:40.133Z,1012.6
2016-08-21T12:00:53.313Z,1012.6
2016-08-21T12:02:06.300Z,1012.67
2016-08-21T12:03:19.486Z,1012.63
2016-08-21T12:04:32.693Z,1012.53
2016-08-21T12:05:45.682Z,1012.48
2016-08-21T12:06:58.679Z,1012.5
2016-08-21T12:08:12.059Z,1012.38
2016-08-21T12:09:25.039Z,1012.49
2016-08-21T12:10:38.035Z,1012.54
2016-08-21T12:11:51.031Z,1012.55
2016-08-21T12:13:04.025Z,1012.56
2016-08-21T12:14:17.012Z,1012.68
2016-08-21T12:15:30.009Z,1012.67
2016-08-21T12:16:42.995Z,1012.68
2016-08-21T12:17:55.988Z,1012.7
2016-08-21T12:19:09.179Z,1012.73
2016-08-21T12:20:22.169Z,1012.63
2016-08-21T12:21:35.362Z,1012.62
2016-08-21T12:22:48.358Z,1012.65
2016-08-21T12:24:01.397Z,1012.76
2016-08-21T12:25:14.586Z,1012.72
2016-08-21T12:26:27.802Z,1012.7
2016-08-21T12:27:40.790Z,1012.76
2016-08-21T12:28:53.778Z,1012.75
2016-08-21T12:30:06.965Z,1012.81
2016-08-21T12:31:20.146Z,1012.76
2016-08-21T12:32:33.130Z,1012.72
2016-08-21T12:33:46.126Z,1012.7
2016-08-21T12:34:59.126Z,1012.7
2016-08-21T12:36:12.309Z,1012.6
2016-08-21T12:37:25.300Z,1012.55
2016-08-21T12:38:38.291Z,1012.6
2016-08-21T12:39:51.676Z,1012.63
2016-08-21T12:41:04.676Z,1012.45
2016-08-21T12:42:17.664Z,1012.52
2016-08-21T12:43:30.692Z,1012.73
2016-08-21T12:44:43.687Z,1012.68
2016-08-21T12:45:56.682Z,1012.62
2016-08-21T12:47:09.667Z,1012.55
2016-08-21T12:48:22.652Z,1012.57
2016-08-21T12:49:35.649Z,1012.55
2016-08-21T12:50:48.633Z,1012.58
2016-08-21T12:52:01.636Z,1012.64
2016-08-21T12:53:14.623Z,1012.56
2016-08-21T12:54:27.611Z,1012.47
2016-08-21T12:55:40.996Z,1012.45
2016-08-21T12:56:53.982Z,1012.65
2016-08-21T12:58:06.979Z,1012.64
2016-08-21T12:59:19.962Z,1012.53
2016-08-21T13:00:33.145Z,1012.55
2016-08-21T13:01:46.329Z,1012.6
2016-08-21T13:02:59.310Z,1012.67
2016-08-21T13:04:12.292Z,1012.59
2016-08-21T13:05:25.280Z,1012.68
2016-08-21T13:06:38.266Z,1012.72
2016-08-21T13:07:51.684Z,1012.69
2016-08-21T13:09:04.681Z,1012.57
2016-08-21T13:10:17.665Z,1012.58
2016-08-21T13:11:30.658Z,1012.56
2016-08-21T13:12:43.642Z,1012.63
2016-08-21T13:13:56.627Z,1012.66
2016-08-21T13:15:09.618Z,1012.52
2016-08-21T13:16:22.608Z,1012.46
2016-08-21T13:17:35.809Z,1012.65
2016-08-21T13:18:49.008Z,1012.4
2016-08-21T13:20:02.202Z,1012.39
2016-08-21T13:21:15.191Z,1012.34
2016-08-21T13:22:28.184Z,1012.46
2016-08-21T13:23:41.175Z,1012.57
2016-08-21T13:24:54.155Z,1012.7
2016-08-21T13:26:07.150Z,1012.72
2016-08-21T13:27:20.138Z,1012.69
2016-08-21T13:28:33.123Z,1012.68
2016-08-21T13:29:46.314Z,1012.69
2016-08-21T13:30:59.312Z,1012.73
2016-08-21T13:32:12.499Z,1012.72
2016-08-21T13:33:25.491Z,1012.73
2016-08-21T13:34:38.486Z,1012.74
2016-08-21T13:35:51.503Z,1012.82
2016-08-21T13:37:04.491Z,1012.84
2016-08-21T13:38:17.481Z,1012.79
2016-08-21T13:39:30.473Z,1012.84
2016-08-21T13:40:43.462Z,1012.93
2016-08-21T13:41:56.453Z,1012.91
2016-08-21T13:43:09.458Z,1012.91
2016-08-21T13:44:22.500Z,1012.89
2016-08-21T13:45:35.496Z,1012.87
2016-08-21T13:46:48.704Z,1012.9
2016-08-21T13:48:01.700Z,1012.89
2016-08-21T13:49:14.681Z,1012.94
2016-08-21T13:50:27.861Z,1012.96
2016-08-21T13:51:40.842Z,1013
2016-08-21T13:52:53.823Z,1013.04
2016-08-21T13:54:07.017Z,1013.02
2016-08-21T13:55:20.011Z,1012.98
2016-08-21T13:56:33.005Z,1012.96
2016-08-21T13:57:45.992Z,1013
2016-08-21T13:58:58.998Z,1012.98
2016-08-21T14:00:12.192Z,1012.98
2016-08-21T14:01:25.179Z,1013.02
2016-08-21T14:02:38.160Z,1013.02
2016-08-21T14:03:51.145Z,1012.98
2016-08-21T14:05:04.135Z,1012.93
2016-08-21T14:06:17.536Z,1012.87
2016-08-21T14:07:30.520Z,1012.89
2016-08-21T14:08:43.510Z,1012.89
2016-08-21T14:09:56.495Z,1012.96
2016-08-21T14:11:09.483Z,1012.96
2016-08-21T14:12:22.475Z,1012.93
2016-08-21T14:13:35.455Z,1012.96
2016-08-21T14:14:48.443Z,1012.91
2016-08-21T14:16:01.629Z,1012.96
2016-08-21T14:17:14.822Z,1013
2016-08-21T14:18:27.811Z,1013.08
2016-08-21T14:19:40.792Z,1013.09
2016-08-21T14:20:53.786Z,1013.07
2016-08-21T14:22:06.766Z,1013.04
2016-08-21T14:23:19.765Z,1013.03
2016-08-21T14:24:32.755Z,1012.98
2016-08-21T14:25:45.939Z,1013
2016-08-21T14:26:58.958Z,1012.95
2016-08-21T14:28:12.149Z,1012.98
2016-08-21T14:29:25.142Z,1012.97
2016-08-21T14:30:38.129Z,1012.98
2016-08-21T14:31:51.338Z,1012.95
2016-08-21T14:33:04.324Z,1012.98
2016-08-21T14:34:17.309Z,1013.02
2016-08-21T14:35:30.496Z,1012.99
2016-08-21T14:36:43.492Z,1012.99
2016-08-21T14:37:56.491Z,1013.04
2016-08-21T14:39:09.478Z,1013.02
2016-08-21T14:40:22.462Z,1013.11
2016-08-21T14:41:35.452Z,1013.2
2016-08-21T14:42:48.630Z,1013.32
2016-08-21T14:44:01.822Z,1013.44
2016-08-21T14:45:14.857Z,1013.49
2016-08-21T14:46:27.846Z,1013.4